Time;durP1;ratioP1;P1;durP2;ratioP2;P2;SDS_P1;SDS_P2;PMS_P1;PMS_P2;Temp;Humidity;BMP_temperature;BMP_pressure;BME280_temperature;BME280_humidity;BME280_pressure;Samples;Min_cycle;Max_cycle;Signal;HPM_P1;HPM_P2
2023/08/07 00:02:15;;;;;;;;;0.33;0.33;;;;;-143.90;87.35;73807.97;4980758;28;103988;-81
2023/08/07 00:04:49;;;;;;;;;1.00;1.00;;;;;-143.90;87.14;73807.97;4980381;28;102257;-82
2023/08/07 00:07:36;;;;;;;;;1.00;1.00;;;;;-143.90;87.36;73807.97;4979282;28;102286;-81
2023/08/07 00:10:20;;;;;;;;;0.00;0.00;;;;;-143.90;87.26;73799.69;4975983;28;102262;-81
2023/08/07 00:13:09;;;;;;;;;0.67;0.67;;;;;-143.90;87.44;73805.91;4978680;28;103269;-82
2023/08/07 00:16:13;;;;;;;;;1.00;1.00;;;;;-143.90;87.82;73803.84;4973496;28;102969;-82
2023/08/07 00:18:58;;;;;;;;;1.00;0.33;;;;;-143.90;87.37;73807.97;4976899;28;102355;-82
2023/08/07 00:21:25;;;;;;;;;1.00;1.00;;;;;-143.90;87.33;73807.97;4961437;28;101963;-82
2023/08/07 00:23:52;;;;;;;;;0.00;0.00;;;;;-143.90;87.16;73807.97;4978759;28;103974;-81
2023/08/07 00:26:19;;;;;;;;;0.33;0.33;;;;;-143.90;87.50;73803.84;4983379;28;102134;-82
2023/08/07 00:28:46;;;;;;;;;0.33;0.33;;;;;-143.90;87.68;73805.91;4976220;28;102583;-82
2023/08/07 00:31:13;;;;;;;;;1.00;1.00;;;;;-143.90;87.54;73801.78;4978175;28;102536;-81
2023/08/07 00:33:40;;;;;;;;;0.00;0.00;;;;;-143.90;87.65;73803.84;4975980;28;103981;-81
2023/08/07 00:36:08;;;;;;;;;1.00;0.00;;;;;-143.90;87.42;73803.84;4980288;28;101956;-81
2023/08/07 00:38:35;;;;;;;;;1.00;1.00;;;;;-143.90;87.55;73807.97;4975302;28;102319;-81
2023/08/07 00:41:02;;;;;;;;;1.00;1.00;;;;;-143.90;87.58;73805.91;4981202;28;102940;-81
2023/08/07 00:43:29;;;;;;;;;1.00;1.00;;;;;-143.90;87.58;73799.69;4979726;28;104003;-81
2023/08/07 00:45:57;;;;;;;;;0.00;0.00;;;;;-143.90;87.23;73812.09;4962144;28;101818;-80
2023/08/07 00:48:24;;;;;;;;;0.33;0.00;;;;;-143.90;87.70;73807.97;4976527;28;102456;-80
2023/08/07 00:50:52;;;;;;;;;2.50;2.00;;;;;-143.90;87.41;73799.69;4959222;28;102179;-80
2023/08/07 00:53:19;;;;;;;;;0.00;0.00;;;;;-143.90;87.41;73795.56;4977067;28;103661;-81
2023/08/07 00:55:47;;;;;;;;;1.00;1.00;;;;;-143.90;87.11;73801.78;4980339;28;102334;-80
2023/08/07 00:58:14;;;;;;;;;1.00;1.00;;;;;-143.90;87.51;73787.31;4980105;28;102340;-81
2023/08/07 01:00:42;;;;;;;;;0.00;0.00;;;;;-143.90;87.11;73799.69;4979105;28;102625;-80
2023/08/07 01:03:11;;;;;;;;;1.67;1.67;;;;;-143.90;87.79;73795.56;4976919;28;104092;-80
2023/08/07 01:05:47;;;;;;;;;0.00;0.00;;;;;-143.90;87.82;73795.56;4984967;28;102322;-81
2023/08/07 01:08:33;;;;;;;;;2.25;1.25;;;;;-143.90;87.68;73783.16;4978561;28;102771;-80
2023/08/07 01:11:25;;;;;;;;;0.00;0.00;;;;;-143.90;87.74;73781.09;4979576;28;102239;-80
2023/08/07 01:14:34;;;;;;;;;1.00;1.00;;;;;-143.90;87.64;73774.91;4977273;28;103099;-80
2023/08/07 01:17:27;;;;;;;;;1.00;1.00;;;;;-143.90;87.48;73774.91;4976577;28;103129;-80
2023/08/07 01:20:24;;;;;;;;;0.67;0.67;;;;;-143.90;87.54;73791.44;4973239;28;102158;-83
2023/08/07 01:22:56;;;;;;;;;0.00;0.00;;;;;-143.90;87.54;73787.31;4979861;28;101946;-82
2023/08/07 01:25:23;;;;;;;;;1.33;1.33;;;;;-143.90;87.25;73785.25;4964090;28;103858;-83
2023/08/07 01:27:57;;;;;;;;;1.00;1.00;;;;;-143.90;87.09;73791.44;4980707;28;102250;-82
2023/08/07 01:30:36;;;;;;;;;1.00;1.00;;;;;-143.90;87.26;73795.56;4979977;28;102938;-82
2023/08/07 01:33:22;;;;;;;;;0.00;0.00;;;;;-143.90;87.29;73793.50;4978753;28;102347;-80
2023/08/07 01:35:55;;;;;;;;;1.00;1.00;;;;;-143.90;87.40;73799.69;4975634;28;103835;-80
2023/08/07 01:38:25;;;;;;;;;1.00;1.00;;;;;-143.90;87.52;73795.56;4983885;28;102096;-83
2023/08/07 01:40:53;;;;;;;;;1.00;1.00;;;;;-143.90;87.54;73787.31;4981027;28;102075;-80
2023/08/07 01:43:21;;;;;;;;;1.00;1.00;;;;;-143.90;87.56;73791.44;4982075;28;102392;-80
2023/08/07 01:45:48;;;;;;;;;0.00;0.00;;;;;-143.90;87.77;73787.31;4970227;28;104068;-80
2023/08/07 01:48:15;;;;;;;;;1.00;1.00;;;;;-143.90;87.75;73793.50;4981447;28;102299;-80
2023/08/07 01:50:42;;;;;;;;;0.00;0.00;;;;;-143.90;87.64;73787.31;4977292;28;102073;-80
2023/08/07 01:53:09;;;;;;;;;1.00;1.00;;;;;-143.90;87.30;73787.31;4966378;28;103950;-80
2023/08/07 01:55:36;;;;;;;;;0.00;0.00;;;;;-143.90;87.33;73783.16;4978484;28;104121;-80
2023/08/07 01:58:03;;;;;;;;;1.00;0.67;;;;;-143.90;87.28;73785.25;4978330;28;102592;-80
2023/08/07 02:00:31;;;;;;;;;1.00;0.00;;;;;-143.90;87.64;73783.16;4979842;28;102297;-81
2023/08/07 02:02:58;;;;;;;;;1.00;1.00;;;;;-143.90;87.36;73783.16;4962841;28;103443;-81
2023/08/07 02:05:26;;;;;;;;;1.00;0.00;;;;;-143.90;87.51;73787.31;4960673;28;104145;-80
2023/08/07 02:07:53;;;;;;;;;0.00;0.00;;;;;-143.90;87.28;73787.31;4976839;28;102149;-81
2023/08/07 02:10:20;;;;;;;;;1.00;0.00;;;;;-143.90;87.57;73787.31;4979420;28;103060;-80
2023/08/07 02:12:47;;;;;;;;;1.00;0.67;;;;;-143.90;87.74;73785.25;4983225;28;101992;-80
2023/08/07 02:15:14;;;;;;;;;3.00;2.00;;;;;-143.90;87.61;73791.44;4980293;28;104132;-81
2023/08/07 02:17:42;;;;;;;;;1.00;1.00;;;;;-143.90;87.53;73791.44;4973707;28;102366;-80
2023/08/07 02:20:09;;;;;;;;;1.00;1.00;;;;;-143.90;87.49;73795.56;4981147;28;102436;-81
2023/08/07 02:22:37;;;;;;;;;1.00;1.00;;;;;-143.90;87.31;73795.56;4982017;28;102123;-80
2023/08/07 02:25:04;;;;;;;;;1.00;0.00;;;;;-143.90;87.64;73795.56;4978514;28;104203;-81
2023/08/07 02:27:34;;;;;;;;;0.67;0.67;;;;;-143.90;87.84;73797.63;4963343;28;102390;-81
2023/08/07 02:30:03;;;;;;;;;0.67;0.67;;;;;-143.90;87.70;73791.44;4978845;28;102353;-81
2023/08/07 02:32:30;;;;;;;;;2.00;2.00;;;;;-143.90;87.53;73795.56;4979208;28;102466;-81
2023/08/07 02:34:58;;;;;;;;;1.00;1.00;;;;;-143.90;87.80;73799.69;4964106;28;104047;-81
2023/08/07 02:37:25;;;;;;;;;1.00;0.00;;;;;-143.90;88.03;73795.56;4982280;28;102156;-81
2023/08/07 02:39:53;;;;;;;;;2.00;1.00;;;;;-143.90;87.92;73795.56;4979176;28;102862;-81
2023/08/07 02:42:20;;;;;;;;;0.00;0.00;;;;;-143.90;87.78;73799.69;4983220;28;102335;-81
2023/08/07 02:44:47;;;;;;;;;1.00;0.67;;;;;-143.90;87.82;73795.56;4981995;28;104007;-81
2023/08/07 02:47:14;;;;;;;;;1.00;1.00;;;;;-143.90;87.40;73803.84;4983593;28;102397;-81
2023/08/07 02:49:41;;;;;;;;;2.00;1.33;;;;;-143.90;87.63;73799.69;4981061;28;102127;-81
2023/08/07 02:52:09;;;;;;;;;2.00;2.00;;;;;-143.90;87.55;73799.69;4977989;28;102175;-80
2023/08/07 02:54:36;;;;;;;;;1.25;1.25;;;;;-143.90;87.56;73801.78;4976843;28;104128;-81
2023/08/07 02:57:03;;;;;;;;;1.75;1.75;;;;;-143.90;87.68;73805.91;4978890;28;102267;-81
2023/08/07 02:59:30;;;;;;;;;1.00;1.00;;;;;-143.90;87.84;73805.91;4979320;28;102183;-81
2023/08/07 03:01:57;;;;;;;;;2.00;2.00;;;;;-143.90;87.87;73807.97;4976455;28;102007;-81
2023/08/07 03:04:24;;;;;;;;;2.25;2.00;;;;;-143.90;87.75;73805.91;4962253;28;103983;-81
2023/08/07 03:06:51;;;;;;;;;4.00;4.00;;;;;-143.90;88.00;73812.09;4981328;28;102296;-82
2023/08/07 03:09:18;;;;;;;;;2.00;2.00;;;;;-143.90;88.11;73820.38;4984251;28;102308;-81
2023/08/07 03:11:45;;;;;;;;;3.00;3.00;;;;;-143.90;88.33;73816.25;4981737;28;102735;-81
2023/08/07 03:14:13;;;;;;;;;3.25;3.00;;;;;-143.90;88.21;73812.09;4982755;28;104001;-81
2023/08/07 03:16:40;;;;;;;;;2.75;2.00;;;;;-143.90;88.47;73816.25;4978336;28;102363;-81
2023/08/07 03:19:07;;;;;;;;;2.75;2.75;;;;;-143.90;88.16;73816.25;4983647;28;102201;-82
2023/08/07 03:21:34;;;;;;;;;1.00;1.00;;;;;-143.90;88.70;73822.44;4969893;28;102377;-81
2023/08/07 03:24:01;;;;;;;;;4.75;3.50;;;;;-143.90;88.63;73820.38;4984394;28;104273;-82
2023/08/07 03:26:28;;;;;;;;;2.75;2.75;;;;;-143.90;88.78;73818.31;4983197;28;102375;-81
2023/08/07 03:28:55;;;;;;;;;4.00;4.00;;;;;-143.90;88.64;73822.44;4979052;28;102518;-81
2023/08/07 03:31:22;;;;;;;;;3.50;3.00;;;;;-143.90;88.73;73824.50;4980786;28;102222;-81
2023/08/07 03:33:49;;;;;;;;;2.25;2.00;;;;;-143.90;88.53;73828.63;4976049;28;103948;-81
2023/08/07 03:36:16;;;;;;;;;3.50;3.00;;;;;-143.90;88.99;73828.63;4982349;28;102416;-81
2023/08/07 03:38:43;;;;;;;;;3.67;2.00;;;;;-143.90;88.89;73828.63;4983306;28;102271;-81
2023/08/07 03:41:11;;;;;;;;;4.75;4.00;;;;;-143.90;89.11;73828.63;4982560;28;102190;-81
2023/08/07 03:43:38;;;;;;;;;3.00;3.00;;;;;-143.90;89.44;73832.78;4978871;28;104263;-80
2023/08/07 03:46:05;;;;;;;;;3.50;3.50;;;;;-143.90;89.09;73832.78;4980727;28;102279;-81
2023/08/07 03:48:32;;;;;;;;;2.50;2.50;;;;;-143.90;89.30;73834.84;4981192;28;102207;-80
2023/08/07 03:51:08;;;;;;;;;3.50;3.50;;;;;-143.90;89.71;73836.91;4978586;28;102326;-81
2023/08/07 03:53:35;;;;;;;;;5.00;4.00;;;;;-143.90;89.50;73834.84;4982802;28;104160;-80
2023/08/07 03:56:03;;;;;;;;;4.25;4.00;;;;;-143.90;89.35;73838.97;4982930;28;102252;-80
2023/08/07 03:58:30;;;;;;;;;3.75;3.00;;;;;-143.90;89.60;73836.91;4979062;28;103552;-81
2023/08/07 04:00:57;;;;;;;;;3.50;3.00;;;;;-143.90;89.58;73830.69;4971805;28;102181;-81
2023/08/07 04:03:24;;;;;;;;;2.00;2.00;;;;;-143.90;89.40;73830.69;4978949;28;104402;-82
2023/08/07 04:05:53;;;;;;;;;3.00;3.00;;;;;-143.90;89.53;73832.78;4975375;28;102180;-80
2023/08/07 04:08:21;;;;;;;;;2.00;2.00;;;;;-143.90;89.50;73832.78;4980191;28;102848;-80
2023/08/07 04:11:02;;;;;;;;;2.25;2.25;;;;;-143.90;89.54;73832.78;4981672;28;102077;-81
2023/08/07 04:13:30;;;;;;;;;1.00;1.00;;;;;-143.90;89.26;73832.78;4975315;28;104120;-81
2023/08/07 04:15:58;;;;;;;;;2.00;2.00;;;;;-143.90;89.45;73836.91;4979162;28;102059;-80
2023/08/07 04:18:25;;;;;;;;;1.75;1.75;;;;;-143.90;89.10;73830.69;4976513;28;102319;-80
2023/08/07 04:20:56;;;;;;;;;1.00;1.00;;;;;-143.90;89.44;73828.63;4981985;28;103569;-80
2023/08/07 04:23:24;;;;;;;;;1.00;1.00;;;;;-143.90;89.25;73826.56;4978215;28;104040;-79
2023/08/07 04:25:52;;;;;;;;;2.25;1.25;;;;;-143.90;89.47;73826.56;4977741;28;101904;-80
2023/08/07 04:28:19;;;;;;;;;2.00;1.00;;;;;-143.90;89.02;73826.56;4982118;28;102419;-79
2023/08/07 04:30:53;;;;;;;;;1.00;1.00;;;;;-143.90;89.18;73826.56;4979342;28;102143;-80
2023/08/07 04:33:21;;;;;;;;;2.00;2.00;;;;;-143.90;89.08;73822.44;4975508;28;104050;-79
2023/08/07 04:35:48;;;;;;;;;1.75;1.75;;;;;-143.90;89.53;73820.38;4979884;28;102315;-82
2023/08/07 04:38:16;;;;;;;;;3.00;3.00;;;;;-143.90;89.34;73820.38;4981262;28;102400;-80
2023/08/07 04:40:45;;;;;;;;;3.00;3.00;;;;;-143.90;89.45;73820.38;4983376;28;101891;-79
2023/08/07 04:43:13;;;;;;;;;1.00;1.00;;;;;-143.90;89.44;73820.38;4982626;28;104232;-80
2023/08/07 04:45:41;;;;;;;;;3.00;3.00;;;;;-143.90;89.28;73826.56;4981955;28;102543;-80
2023/08/07 04:48:08;;;;;;;;;3.50;3.00;;;;;-143.90;89.23;73824.50;4980980;28;102405;-80
2023/08/07 04:50:35;;;;;;;;;3.75;2.50;;;;;-143.90;89.20;73826.56;4982348;28;102639;-79
2023/08/07 04:53:02;;;;;;;;;2.50;2.50;;;;;-143.90;89.34;73822.44;4969927;28;104048;-79
2023/08/07 04:55:30;;;;;;;;;1.75;1.75;;;;;-143.90;89.00;73822.44;4961101;28;102398;-79
2023/08/07 04:57:57;;;;;;;;;3.00;2.25;;;;;-143.90;89.13;73824.50;4976229;28;102211;-80
2023/08/07 05:00:25;;;;;;;;;2.00;2.00;;;;;-143.90;88.93;73830.69;4981360;28;102143;-81
2023/08/07 05:02:52;;;;;;;;;0.00;0.00;;;;;-143.90;89.15;73836.91;4976798;28;104013;-79
2023/08/07 05:05:21;;;;;;;;;2.50;2.00;;;;;-143.90;89.14;73841.03;4980867;28;102244;-78
2023/08/07 05:07:48;;;;;;;;;2.00;2.00;;;;;-143.90;89.18;73838.97;4978807;28;102582;-80
2023/08/07 05:10:15;;;;;;;;;2.25;2.25;;;;;-143.90;88.97;73845.16;4982628;28;102315;-78
2023/08/07 05:12:46;;;;;;;;;3.00;3.00;;;;;-143.90;89.51;73845.16;4964592;28;104044;-81
2023/08/07 05:15:13;;;;;;;;;2.00;2.00;;;;;-143.90;89.63;73847.25;4968796;28;102254;-82
2023/08/07 05:17:40;;;;;;;;;1.00;1.00;;;;;-143.90;89.49;73853.44;4980611;28;102455;-80
2023/08/07 05:20:08;;;;;;;;;1.00;1.00;;;;;-143.90;89.11;73855.50;4980923;28;102036;-81
2023/08/07 05:22:37;;;;;;;;;1.67;1.67;;;;;-143.90;89.04;73865.84;4964659;28;104209;-80
2023/08/07 05:25:04;;;;;;;;;1.67;1.67;;;;;-143.90;89.00;73863.78;4977585;28;101983;-80
2023/08/07 05:27:32;;;;;;;;;1.00;1.00;;;;;-143.90;89.37;73865.84;4983181;28;101962;-83
2023/08/07 05:29:59;;;;;;;;;1.00;1.00;;;;;-143.90;89.32;73861.69;4979389;28;102433;-80
2023/08/07 05:32:26;;;;;;;;;1.00;1.00;;;;;-143.90;88.79;73867.91;4973622;28;104046;-82
2023/08/07 05:34:53;;;;;;;;;0.00;0.00;;;;;-143.90;89.03;73869.97;4979948;28;102181;-83
2023/08/07 05:37:20;;;;;;;;;1.25;1.25;;;;;-143.90;89.03;73886.50;4977790;28;102378;-81
2023/08/07 05:39:48;;;;;;;;;1.00;1.00;;;;;-143.90;89.04;73890.63;4978923;28;102201;-81
2023/08/07 05:42:15;;;;;;;;;1.25;1.25;;;;;-143.90;89.00;73898.91;4982708;28;104401;-81
2023/08/07 05:44:42;;;;;;;;;2.25;1.50;;;;;-143.90;88.97;73907.16;4977483;28;102540;-83
2023/08/07 05:47:09;;;;;;;;;1.00;1.00;;;;;-143.90;88.86;73909.25;4979915;28;103239;-82
2023/08/07 05:49:36;;;;;;;;;0.75;0.75;;;;;-143.90;89.06;73913.38;4982546;28;102025;-81
2023/08/07 05:52:04;;;;;;;;;2.00;2.00;;;;;-143.90;88.65;73919.56;4982098;28;103976;-81
2023/08/07 05:54:31;;;;;;;;;1.00;1.00;;;;;-143.90;89.15;73927.84;4977114;28;102458;-83
2023/08/07 05:56:58;;;;;;;;;1.00;1.00;;;;;-143.90;89.21;73925.78;4981108;28;101862;-85
2023/08/07 05:59:26;;;;;;;;;0.00;0.00;;;;;-143.90;89.63;73919.56;4981080;28;102050;-81
2023/08/07 06:01:54;;;;;;;;;1.00;1.00;;;;;-143.90;89.14;73923.72;4975147;28;104072;-81
2023/08/07 06:04:25;;;;;;;;;0.00;0.00;;;;;-143.90;89.24;73915.44;4976595;28;102149;-81
2023/08/07 06:06:52;;;;;;;;;0.33;0.00;;;;;-143.90;89.57;73919.56;4975561;28;102176;-81
2023/08/07 06:09:20;;;;;;;;;0.67;0.67;;;;;-143.90;89.07;73923.72;4980390;28;102149;-81
2023/08/07 06:11:48;;;;;;;;;0.33;0.33;;;;;-143.90;89.56;73931.97;4978771;28;104266;-82
2023/08/07 06:14:15;;;;;;;;;0.00;0.00;;;;;-143.90;89.44;73925.78;4980782;28;102117;-81
2023/08/07 06:16:43;;;;;;;;;0.00;0.00;;;;;-143.90;89.27;73921.63;4974993;28;101948;-81
2023/08/07 06:19:10;;;;;;;;;0.00;0.00;;;;;-143.90;89.00;73923.72;4979191;28;102432;-86
2023/08/07 06:21:51;;;;;;;;;0.50;0.50;;;;;-143.90;88.86;73919.56;4979962;28;104124;-80
2023/08/07 06:24:18;;;;;;;;;0.00;0.00;;;;;-143.90;89.12;73911.31;4979877;28;102158;-80
2023/08/07 06:26:45;;;;;;;;;0.67;0.67;;;;;-143.90;89.23;73911.31;4973583;28;102435;-80
2023/08/07 06:29:12;;;;;;;;;0.00;0.00;;;;;-143.90;88.65;73911.31;4981063;28;102491;-81
2023/08/07 06:31:39;;;;;;;;;0.67;0.00;;;;;-143.90;88.32;73913.38;4976876;28;103644;-79
2023/08/07 06:34:07;;;;;;;;;0.00;0.00;;;;;-143.90;88.50;73909.25;4976894;28;102229;-81
2023/08/07 06:36:34;;;;;;;;;0.33;0.00;;;;;-143.90;88.49;73903.03;4982170;28;102049;-80
2023/08/07 06:39:03;;;;;;;;;0.00;0.00;;;;;-143.90;88.08;73898.91;4981076;28;102419;-80
2023/08/07 06:41:30;;;;;;;;;1.00;1.00;;;;;-143.90;87.68;73898.91;4979335;28;104005;-81
2023/08/07 06:43:57;;;;;;;;;1.00;1.00;;;;;-143.90;87.93;73900.97;4975893;28;102050;-82
2023/08/07 06:46:27;;;;;;;;;1.00;0.00;;;;;-143.90;87.77;73898.91;4982405;28;102175;-80
2023/08/07 06:48:54;;;;;;;;;0.00;0.00;;;;;-143.90;87.81;73898.91;4979566;28;102170;-80
2023/08/07 06:51:21;;;;;;;;;1.00;0.00;;;;;-143.90;87.70;73890.63;4980720;28;104013;-80
2023/08/07 06:53:48;;;;;;;;;0.00;0.00;;;;;-143.90;87.91;73886.50;4979755;28;101999;-80
2023/08/07 06:56:16;;;;;;;;;0.67;0.67;;;;;-143.90;87.75;73876.16;4980663;28;102150;-80
2023/08/07 06:58:43;;;;;;;;;0.00;0.00;;;;;-143.90;87.44;73874.09;4980024;28;102458;-81
2023/08/07 07:01:10;;;;;;;;;1.33;1.00;;;;;-143.90;86.46;73880.31;4981406;28;104037;-80
2023/08/07 07:03:37;;;;;;;;;0.00;0.00;;;;;-143.90;86.52;73880.31;4982563;28;103083;-80
2023/08/07 07:06:04;;;;;;;;;1.00;1.00;;;;;-143.90;85.99;73880.31;4975139;28;102060;-81
2023/08/07 07:08:32;;;;;;;;;0.00;0.00;;;;;-143.90;86.22;73886.50;4980784;28;102476;-80
2023/08/07 07:11:00;;;;;;;;;0.00;0.00;;;;;-143.90;86.43;73876.16;4974156;28;104018;-81
2023/08/07 07:13:27;;;;;;;;;1.00;1.00;;;;;-143.90;86.39;73876.16;4984874;28;102163;-80
2023/08/07 07:15:55;;;;;;;;;0.33;0.33;;;;;-143.90;85.71;73872.03;4982723;28;102332;-80
2023/08/07 07:18:22;;;;;;;;;1.00;1.00;;;;;-143.90;85.58;73869.97;4982043;28;102152;-81
2023/08/07 07:20:57;;;;;;;;;0.00;0.00;;;;;-143.90;85.37;73869.97;4983890;28;103982;-80
2023/08/07 07:23:24;;;;;;;;;2.00;2.00;;;;;-143.90;85.46;73880.31;4983663;28;102300;-80
2023/08/07 07:25:51;;;;;;;;;2.00;2.00;;;;;-143.90;85.47;73882.38;4981135;28;103057;-80
2023/08/07 07:28:18;;;;;;;;;2.00;2.00;;;;;-143.90;85.61;73886.50;4986723;28;102213;-81
2023/08/07 07:30:45;;;;;;;;;0.33;0.33;;;;;-143.90;85.57;73878.25;4982758;28;104005;-81
2023/08/07 07:33:13;;;;;;;;;1.00;1.00;;;;;-143.90;85.61;73882.38;4983951;28;102402;-82
2023/08/07 07:35:40;;;;;;;;;0.00;0.00;;;;;-143.90;85.82;73876.16;4983609;28;102559;-81
2023/08/07 07:38:08;;;;;;;;;0.67;0.67;;;;;-143.90;86.22;73880.31;4980626;28;102237;-81
2023/08/07 07:40:35;;;;;;;;;1.00;1.00;;;;;-143.90;85.81;73880.31;4982877;28;103711;-81
2023/08/07 07:43:03;;;;;;;;;1.67;0.00;;;;;-143.90;85.39;73888.56;4982849;28;103447;-80
2023/08/07 07:45:30;;;;;;;;;0.67;0.67;;;;;-143.90;85.13;73888.56;4985856;28;102252;-81
2023/08/07 07:47:57;;;;;;;;;1.00;1.00;;;;;-143.90;85.45;73890.63;4983180;28;102272;-84
2023/08/07 07:50:24;;;;;;;;;1.00;1.00;;;;;-143.90;85.01;73898.91;4980116;28;104180;-81
2023/08/07 07:52:51;;;;;;;;;1.00;1.00;;;;;-143.90;85.21;73890.63;4980364;28;102519;-82
2023/08/07 07:55:18;;;;;;;;;1.00;1.00;;;;;-143.90;84.77;73894.78;4981312;28;102336;-81
2023/08/07 07:57:45;;;;;;;;;1.00;1.00;;;;;-143.90;84.85;73903.03;4981733;28;102144;-81
2023/08/07 08:00:13;;;;;;;;;1.00;1.00;;;;;-143.90;84.36;73903.03;4983121;28;104070;-82
2023/08/07 08:02:40;;;;;;;;;1.00;1.00;;;;;-143.90;84.35;73911.31;4982595;28;102048;-80
2023/08/07 08:05:12;;;;;;;;;2.00;2.00;;;;;-143.90;84.88;73911.31;4979930;28;102040;-81
2023/08/07 08:07:40;;;;;;;;;1.00;1.00;;;;;-143.90;85.32;73907.16;4984538;28;102066;-81
2023/08/07 08:10:08;;;;;;;;;0.00;0.00;;;;;-143.90;85.08;73919.56;4978430;28;104026;-82
2023/08/07 08:12:36;;;;;;;;;2.00;2.00;;;;;-143.90;84.88;73923.72;4984339;28;102194;-80
2023/08/07 08:15:05;;;;;;;;;1.00;1.00;;;;;-143.90;85.07;73936.09;4982349;28;103047;-81
2023/08/07 08:17:32;;;;;;;;;2.25;1.50;;;;;-143.90;85.74;73942.31;4978781;28;102537;-79
2023/08/07 08:19:59;;;;;;;;;2.00;2.00;;;;;-143.90;86.19;73940.25;4982942;28;104071;-81
2023/08/07 08:22:27;;;;;;;;;2.00;2.00;;;;;-143.90;86.60;73929.91;4980334;28;102202;-81
2023/08/07 08:24:54;;;;;;;;;0.67;0.33;;;;;-143.90;86.98;73921.63;4983339;28;102211;-80
2023/08/07 08:27:25;;;;;;;;;2.00;1.00;;;;;-143.90;86.69;73923.72;4983246;28;102473;-80
2023/08/07 08:29:52;;;;;;;;;0.33;0.33;;;;;-143.90;86.82;73905.09;4984867;28;104154;-80
2023/08/07 08:32:20;;;;;;;;;1.00;1.00;;;;;-143.90;86.78;73903.03;4983314;28;102080;-80
2023/08/07 08:34:49;;;;;;;;;1.00;1.00;;;;;-143.90;86.71;73903.03;4981851;28;102512;-81
2023/08/07 08:37:16;;;;;;;;;0.00;0.00;;;;;-143.90;86.62;73890.63;4983208;28;102038;-80
2023/08/07 08:39:43;;;;;;;;;0.00;0.00;;;;;-143.90;85.89;73888.56;4983544;28;104439;-80
2023/08/07 08:42:13;;;;;;;;;1.00;1.00;;;;;-143.90;85.22;73886.50;4982245;28;102309;-80
2023/08/07 08:44:40;;;;;;;;;0.33;0.33;;;;;-143.90;85.27;73890.63;4980891;28;102114;-81
2023/08/07 08:47:08;;;;;;;;;1.00;1.00;;;;;-143.90;84.95;73890.63;4982793;28;102003;-80
2023/08/07 08:49:45;;;;;;;;;1.00;1.00;;;;;-143.90;85.29;73896.84;4980159;28;104253;-80
2023/08/07 08:52:12;;;;;;;;;1.00;1.00;;;;;-143.90;84.84;73900.97;4972935;28;103711;-80
2023/08/07 08:54:40;;;;;;;;;1.00;1.00;;;;;-143.90;84.76;73900.97;4979331;28;102080;-81
2023/08/07 08:57:07;;;;;;;;;1.00;1.00;;;;;-143.90;85.32;73898.91;4981092;28;102512;-80
2023/08/07 08:59:35;;;;;;;;;2.00;1.00;;;;;-143.90;85.77;73894.78;4980979;28;104022;-80
2023/08/07 09:02:02;;;;;;;;;0.00;0.00;;;;;-143.90;85.08;73896.84;4979973;28;102270;-80
2023/08/07 09:04:29;;;;;;;;;0.33;0.33;;;;;-143.90;85.08;73894.78;4983590;28;102231;-80
2023/08/07 09:06:56;;;;;;;;;2.00;1.00;;;;;-143.90;85.34;73896.84;4982412;28;102405;-78
2023/08/07 09:09:24;;;;;;;;;2.00;2.00;;;;;-143.90;84.28;73894.78;4982440;28;104048;-78
2023/08/07 09:11:52;;;;;;;;;0.33;0.33;;;;;-143.90;84.16;73884.44;4978848;28;102303;-80
2023/08/07 09:14:26;;;;;;;;;2.00;1.00;;;;;-143.90;84.42;73874.09;4982698;28;102363;-80
2023/08/07 09:16:53;;;;;;;;;1.00;1.00;;;;;-143.90;83.76;73865.84;4980607;28;102114;-81
2023/08/07 09:19:21;;;;;;;;;1.00;1.00;;;;;-143.90;83.73;73865.84;4982792;28;103890;-81
2023/08/07 09:21:48;;;;;;;;;1.00;1.00;;;;;-143.90;83.86;73861.69;4981087;28;102202;-80
2023/08/07 09:24:18;;;;;;;;;0.33;0.33;;;;;-143.90;82.41;73861.69;4982965;28;102241;-81
2023/08/07 09:26:50;;;;;;;;;1.00;1.00;;;;;-143.90;82.03;73867.91;4983387;28;102466;-81
2023/08/07 09:29:18;;;;;;;;;1.00;1.00;;;;;-143.90;82.19;73878.25;4982039;28;104078;-81
2023/08/07 09:31:46;;;;;;;;;0.33;0.33;;;;;-143.90;82.55;73878.25;4961948;28;102460;-81
2023/08/07 09:34:16;;;;;;;;;1.00;1.00;;;;;-143.90;82.12;73886.50;4982502;28;102280;-81
2023/08/07 09:36:43;;;;;;;;;1.00;1.00;;;;;-143.90;82.65;73882.38;4979201;28;102521;-81
2023/08/07 09:39:10;;;;;;;;;1.00;1.00;;;;;-143.90;82.36;73894.78;4982487;28;103998;-80
2023/08/07 09:41:37;;;;;;;;;2.00;1.00;;;;;-143.90;82.76;73898.91;4979796;28;102982;-83
2023/08/07 09:44:09;;;;;;;;;1.00;1.00;;;;;-143.90;83.90;73898.91;4982280;28;102027;-81
2023/08/07 09:46:44;;;;;;;;;2.00;2.00;;;;;-143.90;83.55;73890.63;4979607;28;102443;-81
2023/08/07 09:49:11;;;;;;;;;1.00;1.00;;;;;-143.90;83.71;73874.09;4977145;28;104055;-81
2023/08/07 09:51:43;;;;;;;;;1.00;1.00;;;;;-143.90;84.14;73855.50;4981467;28;102393;-81
2023/08/07 09:54:10;;;;;;;;;0.67;0.67;;;;;-143.90;82.65;73859.63;4979798;28;102111;-82
2023/08/07 09:56:40;;;;;;;;;1.00;1.00;;;;;-143.90;82.16;73849.31;4979888;28;102052;-81
2023/08/07 09:59:07;;;;;;;;;2.00;1.00;;;;;-143.90;81.24;73853.44;4982538;28;104003;-82
2023/08/07 10:01:39;;;;;;;;;2.00;1.00;;;;;-143.90;81.71;73853.44;4982450;28;102541;-82
2023/08/07 10:04:07;;;;;;;;;1.33;1.33;;;;;-143.90;82.20;73843.09;4982583;28;102284;-83
2023/08/07 10:06:35;;;;;;;;;1.00;0.00;;;;;-143.90;80.96;73843.09;4964988;28;102460;-87
2023/08/07 10:09:03;;;;;;;;;2.67;2.00;;;;;-143.90;80.94;73847.25;4965007;28;104042;-80
2023/08/07 10:11:31;;;;;;;;;1.00;1.00;;;;;-143.90;82.02;73836.91;4978844;28;102259;-83
2023/08/07 10:14:01;;;;;;;;;1.00;1.00;;;;;-143.90;81.38;73832.78;4982268;28;102189;-82
2023/08/07 10:16:29;;;;;;;;;1.00;1.00;;;;;-143.90;81.74;73836.91;4980515;28;102487;-80
2023/08/07 10:18:56;;;;;;;;;2.00;1.67;;;;;-143.90;81.30;73841.03;4967077;28;104259;-82
2023/08/07 10:21:24;;;;;;;;;2.00;1.00;;;;;-143.90;81.20;73851.38;4982951;28;101913;-82
2023/08/07 10:23:54;;;;;;;;;1.00;1.00;;;;;-143.90;81.95;73857.56;4981338;28;102094;-82
2023/08/07 10:26:22;;;;;;;;;1.00;1.00;;;;;-143.90;82.35;73878.25;4978867;28;102313;-83
2023/08/07 10:28:53;;;;;;;;;1.00;1.00;;;;;-143.90;83.15;73878.25;4980778;28;104429;-80
2023/08/07 10:31:23;;;;;;;;;1.33;1.33;;;;;-143.90;84.58;73865.84;4981426;28;102145;-82
2023/08/07 10:33:50;;;;;;;;;2.00;2.00;;;;;-143.90;84.92;73849.31;4981743;28;102144;-82
2023/08/07 10:36:19;;;;;;;;;1.00;1.00;;;;;-143.90;84.21;73841.03;4978890;28;102494;-82
2023/08/07 10:38:50;;;;;;;;;2.00;2.00;;;;;-143.90;82.72;73859.63;4980188;28;104347;-82
2023/08/07 10:41:18;;;;;;;;;3.00;3.00;;;;;-143.90;79.42;73919.56;4981969;28;102362;-81
2023/08/07 10:43:47;;;;;;;;;2.00;1.00;;;;;-143.90;78.41;73998.13;4982074;28;102278;-82
2023/08/07 10:46:16;;;;;;;;;1.00;1.00;;;;;-143.90;80.59;74031.19;4977973;28;102376;-87
2023/08/07 10:48:53;;;;;;;;;2.00;2.00;;;;;-143.90;81.20;74051.84;4980993;28;104051;-84
2023/08/07 10:51:20;;;;;;;;;4.00;2.00;;;;;-143.90;81.87;74066.31;4985776;28;102000;-85
2023/08/07 10:53:50;;;;;;;;;2.00;2.00;;;;;-143.90;81.98;74076.66;4982591;28;102429;-84
2023/08/07 10:56:29;;;;;;;;;2.00;2.00;;;;;-143.90;82.88;74089.06;4982781;28;102438;-85
2023/08/07 10:58:56;;;;;;;;;1.00;1.00;;;;;-143.90;82.86;74099.38;4982598;28;103991;-83
2023/08/07 11:01:27;;;;;;;;;1.00;1.00;;;;;-143.90;83.99;74105.59;4984611;28;102061;-83
2023/08/07 11:03:57;;;;;;;;;1.67;1.67;;;;;-143.90;83.75;74126.25;4979919;28;102183;-84
2023/08/07 11:06:32;;;;;;;;;2.00;2.00;;;;;-143.90;84.06;74122.13;4985021;28;102295;-85
2023/08/07 11:09:00;;;;;;;;;1.00;1.00;;;;;-143.90;84.49;74105.59;4981687;28;104053;-84
2023/08/07 11:11:27;;;;;;;;;0.67;0.67;;;;;-143.90;83.97;74105.59;4981227;28;102124;-85
2023/08/07 11:13:54;;;;;;;;;1.00;1.00;;;;;-143.90;83.54;74113.84;4966786;28;102294;-84
2023/08/07 11:16:23;;;;;;;;;1.00;1.00;;;;;-143.90;83.85;74113.84;4965935;28;102400;-83
2023/08/07 11:18:50;;;;;;;;;1.67;1.00;;;;;-143.90;84.80;74122.13;4968005;28;104263;-84